createdAt,value
2019-03-19T00:04:27.863Z,11.07
2019-03-19T00:09:33.514Z,14.90
2019-03-19T00:14:38.785Z,15.07
2019-03-19T00:19:44.125Z,16.27
2019-03-19T00:24:49.506Z,16.10
2019-03-19T00:29:54.875Z,11.20
2019-03-19T00:35:00.825Z,8.80
2019-03-19T00:40:09.256Z,7.67
2019-03-19T00:45:15.241Z,13.13
2019-03-19T00:50:20.993Z,10.57
2019-03-19T00:55:45.603Z,9.73
2019-03-19T01:00:51.156Z,9.10
2019-03-19T01:05:56.767Z,8.73
2019-03-19T01:11:01.707Z,13.90
2019-03-19T01:16:07.078Z,10.60
2019-03-19T01:21:32.053Z,13.10
2019-03-19T01:26:38.024Z,9.43
2019-03-19T01:31:43.631Z,12.93
2019-03-19T01:36:48.957Z,16.30
2019-03-19T01:42:04.156Z,9.30
2019-03-19T01:47:28.756Z,13.13
2019-03-19T01:52:46.018Z,16.63
2019-03-19T01:57:51.576Z,8.73
2019-03-19T02:02:56.929Z,9.93
2019-03-19T02:08:22.353Z,7.27
2019-03-19T02:13:29.145Z,13.00
2019-03-19T02:18:35.931Z,7.63
2019-03-19T02:23:42.726Z,7.30
2019-03-19T02:28:49.548Z,11.17
2019-03-19T02:33:55.301Z,8.73
2019-03-19T02:39:01.461Z,12.13
2019-03-19T02:44:08.268Z,10.47
2019-03-19T02:49:14.046Z,14.37
2019-03-19T02:54:20.828Z,8.47
2019-03-19T02:59:26.807Z,9.93
2019-03-19T03:04:33.628Z,6.17
2019-03-19T03:09:39.195Z,6.90
2019-03-19T03:14:46.258Z,13.93
2019-03-19T03:19:51.297Z,6.33
2019-03-19T03:24:56.545Z,9.83
2019-03-19T03:30:02.386Z,8.87
2019-03-19T03:35:09.419Z,9.70
2019-03-19T03:40:16.690Z,12.30
2019-03-19T03:45:21.988Z,11.30
2019-03-19T03:50:27.356Z,13.27
2019-03-19T03:55:32.516Z,11.97
2019-03-19T04:00:37.651Z,13.53
2019-03-19T04:05:43.008Z,9.67
2019-03-19T04:10:48.636Z,17.27
2019-03-19T04:15:53.961Z,10.77
2019-03-19T04:20:59.510Z,21.17
2019-03-19T04:26:04.600Z,14.10
2019-03-19T04:31:09.812Z,11.87
2019-03-19T04:36:15.689Z,21.67
2019-03-19T04:41:20.945Z,23.80
2019-03-19T04:46:26.302Z,11.03
2019-03-19T04:51:31.624Z,20.60
2019-03-19T04:56:37.053Z,13.23
2019-03-19T05:01:42.699Z,22.27
2019-03-19T05:06:48.165Z,15.43
2019-03-19T05:11:53.334Z,19.10
2019-03-19T05:16:58.687Z,13.33
2019-03-19T05:22:04.054Z,14.13
2019-03-19T05:27:09.228Z,16.90
2019-03-19T05:32:14.558Z,13.80
2019-03-19T05:37:19.917Z,20.90
2019-03-19T05:42:25.157Z,15.87
2019-03-19T05:47:37.310Z,14.47
2019-03-19T05:52:37.531Z,13.13
2019-03-19T05:57:49.454Z,20.47
2019-03-19T06:02:49.568Z,23.77
2019-03-19T06:07:54.725Z,25.43
2019-03-19T06:12:59.968Z,24.73
2019-03-19T06:18:05.455Z,15.63
2019-03-19T06:23:11.742Z,26.67
2019-03-19T06:28:17.303Z,16.97
2019-03-19T06:33:22.955Z,21.50
2019-03-19T06:38:28.214Z,21.50
2019-03-19T06:43:33.704Z,23.93
2019-03-19T06:48:39.053Z,23.67
2019-03-19T06:53:44.295Z,24.43
2019-03-19T06:58:49.559Z,18.53
2019-03-19T07:03:54.676Z,43.20
2019-03-19T07:08:59.970Z,18.50
2019-03-19T07:14:05.234Z,20.43
2019-03-19T07:19:10.615Z,14.63
2019-03-19T07:24:15.924Z,21.37
2019-03-19T07:29:21.303Z,17.13
2019-03-19T07:34:26.674Z,20.80
2019-03-19T07:39:32.269Z,23.57
2019-03-19T07:44:38.049Z,22.43
2019-03-19T07:49:44.504Z,15.10
2019-03-19T07:54:50.133Z,14.03
2019-03-19T07:59:55.310Z,15.97
2019-03-19T08:05:00.846Z,14.33
2019-03-19T08:10:11.793Z,16.23
2019-03-19T08:15:18.513Z,12.97
2019-03-19T08:20:42.900Z,13.40
2019-03-19T08:25:48.120Z,17.43
2019-03-19T08:30:53.292Z,12.33
2019-03-19T08:36:08.746Z,11.63
2019-03-19T08:41:05.269Z,11.57
2019-03-19T08:46:10.915Z,12.43
2019-03-19T08:51:16.221Z,10.80
2019-03-19T08:56:21.471Z,20.97
2019-03-19T09:01:26.755Z,17.13
2019-03-19T09:06:31.981Z,7.57
2019-03-19T09:11:37.566Z,10.73
2019-03-19T09:16:42.726Z,19.97
2019-03-19T09:21:47.858Z,11.07
2019-03-19T09:26:53.240Z,14.63
2019-03-19T09:31:58.390Z,14.90
2019-03-19T09:37:03.782Z,15.60
2019-03-19T09:42:09.115Z,10.57
2019-03-19T09:47:14.329Z,12.47
2019-03-19T09:52:19.601Z,10.77
2019-03-19T09:57:25.101Z,10.93
2019-03-19T10:02:51.059Z,11.27
2019-03-19T10:07:57.011Z,9.97
2019-03-19T10:13:02.164Z,16.77
2019-03-19T10:18:07.550Z,10.87
2019-03-19T10:23:12.816Z,9.70
2019-03-19T10:28:18.208Z,11.07
2019-03-19T10:33:23.609Z,7.23
2019-03-19T10:38:28.743Z,7.27
2019-03-19T10:43:34.558Z,6.03
2019-03-19T10:48:39.897Z,9.27
2019-03-19T10:53:45.459Z,7.37
2019-03-19T10:58:50.791Z,6.03
2019-03-19T11:03:55.949Z,5.97
2019-03-19T11:09:01.163Z,5.67
2019-03-19T11:14:06.493Z,6.33
2019-03-19T11:19:12.007Z,3.73
2019-03-19T11:24:17.602Z,8.10
2019-03-19T11:29:22.975Z,3.23
2019-03-19T11:34:28.300Z,7.37
2019-03-19T11:39:33.255Z,5.30
2019-03-19T11:44:42.886Z,4.67
2019-03-19T11:49:48.466Z,4.67
2019-03-19T11:54:53.931Z,5.43
2019-03-19T12:00:10.530Z,5.67
2019-03-19T12:05:08.745Z,4.30
2019-03-19T12:10:14.491Z,4.40
2019-03-19T12:15:19.847Z,5.77
2019-03-19T12:20:25.001Z,7.53
2019-03-19T12:25:31.437Z,5.57
2019-03-19T12:30:36.690Z,7.23
2019-03-19T12:35:41.536Z,5.33
2019-03-19T12:40:46.855Z,8.27
2019-03-19T12:45:51.784Z,6.10
2019-03-19T12:50:56.836Z,6.40
2019-03-19T12:56:02.009Z,8.07
2019-03-19T13:01:06.947Z,11.77
2019-03-19T13:06:12.408Z,6.97
2019-03-19T13:11:17.574Z,10.33
2019-03-19T13:16:22.716Z,7.17
2019-03-19T13:21:28.398Z,7.57
2019-03-19T13:26:33.428Z,3.07
2019-03-19T13:31:39.051Z,5.30
2019-03-19T13:36:44.208Z,8.57
2019-03-19T13:41:49.649Z,5.80
2019-03-19T13:46:54.845Z,4.67
2019-03-19T13:52:00.679Z,3.23
2019-03-19T13:57:06.130Z,4.30
2019-03-19T14:02:11.952Z,3.73
2019-03-19T14:07:17.261Z,4.50
2019-03-19T14:12:22.871Z,3.43
2019-03-19T14:17:28.251Z,6.20
2019-03-19T14:22:33.973Z,4.00
2019-03-19T14:27:39.559Z,7.97
2019-03-19T14:32:44.987Z,7.60
2019-03-19T14:37:50.322Z,4.90
2019-03-19T14:42:58.341Z,8.23
2019-03-19T14:48:02.922Z,7.83
2019-03-19T14:53:08.480Z,6.77
2019-03-19T14:58:13.437Z,7.50
2019-03-19T15:03:19.000Z,9.70
2019-03-19T15:08:25.555Z,6.60
2019-03-19T15:13:31.287Z,15.47
2019-03-19T15:18:49.926Z,7.23
2019-03-19T15:23:57.767Z,9.33
2019-03-19T15:29:03.217Z,9.33
2019-03-19T15:34:09.886Z,6.27
2019-03-19T15:39:15.589Z,10.53
2019-03-19T15:44:21.018Z,7.87
2019-03-19T15:49:26.244Z,15.10
2019-03-19T15:54:31.530Z,8.33
2019-03-19T15:59:37.385Z,9.00
2019-03-19T16:04:42.437Z,10.20
2019-03-19T16:09:47.881Z,9.70
2019-03-19T16:14:53.146Z,6.83
2019-03-19T16:19:59.028Z,9.23
2019-03-19T16:25:06.007Z,13.63
2019-03-19T16:30:18.748Z,15.40
2019-03-19T16:35:24.121Z,17.03
2019-03-19T16:40:29.250Z,11.53
2019-03-19T16:45:34.902Z,9.10
2019-03-19T16:50:40.191Z,8.43
2019-03-19T16:55:45.365Z,6.80
2019-03-19T17:00:50.664Z,9.23
2019-03-19T17:05:55.674Z,13.33
2019-03-19T17:11:01.106Z,12.80
2019-03-19T17:16:06.471Z,22.87
2019-03-19T17:21:11.705Z,18.17
2019-03-19T17:26:17.042Z,18.30
2019-03-19T17:31:22.383Z,13.33
2019-03-19T17:36:27.964Z,16.67
2019-03-19T17:41:34.455Z,15.67
2019-03-19T17:46:39.943Z,16.20
2019-03-19T17:51:45.296Z,20.67
2019-03-19T17:56:50.904Z,20.73
2019-03-19T18:01:56.410Z,16.40
2019-03-19T18:07:02.126Z,16.20
2019-03-19T18:12:07.579Z,16.87
2019-03-19T18:17:13.331Z,12.10
2019-03-19T18:22:18.937Z,18.33
2019-03-19T18:27:24.415Z,17.23
2019-03-19T18:32:34.941Z,15.43
2019-03-19T18:37:37.316Z,15.13
2019-03-19T18:42:42.651Z,19.97
2019-03-19T18:47:48.084Z,17.80
2019-03-19T18:52:53.720Z,17.57
2019-03-19T18:57:59.291Z,16.30
2019-03-19T19:03:05.038Z,29.57
2019-03-19T19:08:29.594Z,23.33
2019-03-19T19:13:34.849Z,29.13
2019-03-19T19:18:40.799Z,21.13
2019-03-19T19:23:46.145Z,25.17
2019-03-19T19:28:51.737Z,23.93
2019-03-19T19:33:57.969Z,24.23
2019-03-19T19:39:04.500Z,20.67
2019-03-19T19:44:10.375Z,25.80
2019-03-19T19:49:17.054Z,25.17
2019-03-19T19:54:23.008Z,22.10
2019-03-19T19:59:28.384Z,28.13
2019-03-19T20:05:02.554Z,29.10
2019-03-19T20:10:00.351Z,24.47
2019-03-19T20:15:08.990Z,27.67
2019-03-19T20:20:16.639Z,30.20
2019-03-19T20:25:21.873Z,22.80
2019-03-19T20:30:28.629Z,21.07
2019-03-19T20:35:33.784Z,28.83
2019-03-19T20:40:39.041Z,23.70
2019-03-19T20:45:44.681Z,19.37
2019-03-19T20:50:52.642Z,21.33
2019-03-19T20:55:58.131Z,26.43
2019-03-19T21:01:03.918Z,21.27
2019-03-19T21:06:09.835Z,22.00
2019-03-19T21:11:16.276Z,19.50
2019-03-19T21:16:41.301Z,21.67
2019-03-19T21:21:47.356Z,21.03
2019-03-19T21:27:12.562Z,32.03
2019-03-19T21:32:18.548Z,26.97
2019-03-19T21:37:24.595Z,22.80
2019-03-19T21:42:30.561Z,22.67
2019-03-19T21:47:36.378Z,24.87
2019-03-19T21:53:01.541Z,30.10
2019-03-19T21:58:07.404Z,25.07
2019-03-19T22:03:13.315Z,34.23
2019-03-19T22:08:18.744Z,27.60
2019-03-19T22:13:24.338Z,29.27
2019-03-19T22:18:30.309Z,27.17
2019-03-19T22:23:35.624Z,33.43
2019-03-19T22:28:41.016Z,25.90
2019-03-19T22:33:47.009Z,35.33
2019-03-19T22:38:52.644Z,35.60
2019-03-19T22:43:58.154Z,28.60
2019-03-19T22:49:03.367Z,38.17
2019-03-19T22:54:09.037Z,30.17
2019-03-19T22:59:33.887Z,41.37
2019-03-19T23:04:39.393Z,39.83
2019-03-19T23:09:45.168Z,41.90
2019-03-19T23:14:50.598Z,44.37
2019-03-19T23:19:57.451Z,36.37
2019-03-19T23:25:03.157Z,44.80
2019-03-19T23:30:16.750Z,31.30
2019-03-19T23:35:22.076Z,47.93
2019-03-19T23:40:27.806Z,39.17
2019-03-19T23:45:33.334Z,52.03
2019-03-19T23:50:39.108Z,48.17
2019-03-19T23:55:44.675Z,46.40
